Time;durP1;ratioP1;P1;durP2;ratioP2;P2;SDS_P1;SDS_P2;PMS_P1;PMS_P2;Temp;Humidity;BMP_temperature;BMP_pressure;BME280_temperature;BME280_humidity;BME280_pressure;Samples;Min_cycle;Max_cycle;Signal;HPM_P1;HPM_P2
2023/05/23 00:02:00;;;;;;;78.18;73.88;;;;;;;;;;4961529;28;20034;-63
2023/05/23 00:04:26;;;;;;;77.60;72.82;;;;;;;;;;4961290;28;20729;-69
2023/05/23 00:06:52;;;;;;;63.47;59.92;;;;;;;;;;4961645;28;20141;-62
2023/05/23 00:09:17;;;;;;;57.95;54.75;;;;;;;;;;4955576;28;20043;-62
2023/05/23 00:11:44;;;;;;;65.43;61.63;;;;;;;;;;4961126;28;20042;-68
2023/05/23 00:14:14;;;;;;;60.95;57.60;;;;;;;;;;4962102;28;20038;-62
2023/05/23 00:16:43;;;;;;;56.30;52.92;;;;;;;;;;4960980;28;20369;-63
2023/05/23 00:19:13;;;;;;;51.95;48.65;;;;;;;;;;4962580;28;20035;-62
2023/05/23 00:21:40;;;;;;;46.47;43.88;;;;;;;;;;4960763;28;20045;-62
2023/05/23 00:24:06;;;;;;;56.22;52.90;;;;;;;;;;4958796;28;20043;-63
2023/05/23 00:26:31;;;;;;;47.70;45.10;;;;;;;;;;4959744;28;20147;-63
2023/05/23 00:28:57;;;;;;;43.72;41.15;;;;;;;;;;4959231;28;20460;-70
2023/05/23 00:31:22;;;;;;;50.08;47.15;;;;;;;;;;4957351;28;20066;-62
2023/05/23 00:33:48;;;;;;;49.40;46.20;;;;;;;;;;4961731;28;20112;-70
2023/05/23 00:36:13;;;;;;;51.75;48.60;;;;;;;;;;4960151;28;20121;-63
2023/05/23 00:38:39;;;;;;;51.38;48.60;;;;;;;;;;4960571;28;20050;-63
2023/05/23 00:41:05;;;;;;;42.72;40.30;;;;;;;;;;4959768;28;20026;-69
2023/05/23 00:43:30;;;;;;;48.08;45.03;;;;;;;;;;4962381;28;20126;-70
2023/05/23 00:45:56;;;;;;;55.65;52.13;;;;;;;;;;4960240;28;20046;-62
2023/05/23 00:48:23;;;;;;;52.60;49.70;;;;;;;;;;4960612;28;20042;-63
2023/05/23 00:50:49;;;;;;;53.28;50.35;;;;;;;;;;4959695;28;20078;-63
2023/05/23 00:53:15;;;;;;;47.67;45.03;;;;;;;;;;4961142;28;20380;-72
2023/05/23 00:55:41;;;;;;;55.65;52.63;;;;;;;;;;4961090;28;20118;-72
2023/05/23 00:58:06;;;;;;;53.67;50.72;;;;;;;;;;4956929;28;20138;-63
2023/05/23 01:00:33;;;;;;;58.22;54.92;;;;;;;;;;4960594;28;20121;-64
2023/05/23 01:03:00;;;;;;;47.70;45.05;;;;;;;;;;4959758;28;20506;-71
2023/05/23 01:05:25;;;;;;;53.70;50.47;;;;;;;;;;4958961;28;20361;-72
2023/05/23 01:07:51;;;;;;;49.53;46.88;;;;;;;;;;4959790;28;20043;-72
2023/05/23 01:10:23;;;;;;;52.78;49.55;;;;;;;;;;4960453;28;20302;-73
2023/05/23 01:12:57;;;;;;;55.15;52.10;;;;;;;;;;4960378;28;20930;-64
2023/05/23 01:15:51;;;;;;;54.28;51.30;;;;;;;;;;4956676;28;20086;-73
2023/05/23 01:18:29;;;;;;;49.58;46.95;;;;;;;;;;4948211;28;20074;-73
2023/05/23 01:21:00;;;;;;;50.17;47.45;;;;;;;;;;4961016;28;20043;-72
2023/05/23 01:24:01;;;;;;;58.03;54.83;;;;;;;;;;4957950;28;20425;-72
2023/05/23 01:26:33;;;;;;;50.88;48.15;;;;;;;;;;4955385;28;20774;-72
2023/05/23 01:29:16;;;;;;;49.78;47.13;;;;;;;;;;4962779;28;20030;-73
2023/05/23 01:31:44;;;;;;;48.40;45.55;;;;;;;;;;4957133;28;20043;-64
2023/05/23 01:34:12;;;;;;;51.58;48.72;;;;;;;;;;4961625;28;20541;-64
2023/05/23 01:36:41;;;;;;;49.25;46.33;;;;;;;;;;4943280;28;20138;-72
2023/05/23 01:39:06;;;;;;;55.80;50.58;;;;;;;;;;4958354;28;20050;-63
2023/05/23 01:41:32;;;;;;;52.80;49.60;;;;;;;;;;4959941;28;20473;-62
2023/05/23 01:43:57;;;;;;;56.78;53.63;;;;;;;;;;4960801;28;20105;-63
2023/05/23 01:46:23;;;;;;;55.78;52.55;;;;;;;;;;4959219;28;20051;-73
2023/05/23 01:48:49;;;;;;;55.53;52.47;;;;;;;;;;4963990;28;20038;-72
2023/05/23 01:51:15;;;;;;;57.92;54.75;;;;;;;;;;4958882;28;20042;-73
2023/05/23 01:53:42;;;;;;;55.20;52.20;;;;;;;;;;4959282;28;20124;-63
2023/05/23 01:56:08;;;;;;;55.08;52.15;;;;;;;;;;4960067;28;20501;-63
2023/05/23 01:58:33;;;;;;;55.58;52.63;;;;;;;;;;4957899;28;20049;-72
2023/05/23 02:00:59;;;;;;;55.78;52.85;;;;;;;;;;4957886;28;20038;-73
2023/05/23 02:03:24;;;;;;;56.40;53.50;;;;;;;;;;4957493;28;20053;-73
2023/05/23 02:05:50;;;;;;;57.35;54.25;;;;;;;;;;4960047;28;20462;-72
2023/05/23 02:08:16;;;;;;;58.47;55.30;;;;;;;;;;4956695;28;20446;-72
2023/05/23 02:10:41;;;;;;;57.83;54.75;;;;;;;;;;4960548;28;20102;-72
2023/05/23 02:13:06;;;;;;;59.58;56.33;;;;;;;;;;4959050;28;20042;-63
2023/05/23 02:15:32;;;;;;;62.13;58.67;;;;;;;;;;4955963;28;20103;-72
2023/05/23 02:17:57;;;;;;;59.95;56.65;;;;;;;;;;4960144;28;20679;-62
2023/05/23 02:20:22;;;;;;;60.00;56.40;;;;;;;;;;4957537;28;20038;-63
2023/05/23 02:22:48;;;;;;;58.08;54.90;;;;;;;;;;4957901;28;20038;-62
2023/05/23 02:25:14;;;;;;;56.45;53.42;;;;;;;;;;4957998;28;20049;-62
2023/05/23 02:27:40;;;;;;;59.42;55.67;;;;;;;;;;4958989;28;20039;-62
2023/05/23 02:30:06;;;;;;;53.42;50.55;;;;;;;;;;4961398;28;20043;-71
2023/05/23 02:32:31;;;;;;;57.10;54.05;;;;;;;;;;4959411;28;20062;-72
2023/05/23 02:34:57;;;;;;;57.33;54.20;;;;;;;;;;4960441;28;20062;-62
2023/05/23 02:37:22;;;;;;;51.20;48.50;;;;;;;;;;4959844;28;20695;-63
2023/05/23 02:39:47;;;;;;;48.92;46.10;;;;;;;;;;4963035;28;20046;-62
2023/05/23 02:42:13;;;;;;;49.10;46.53;;;;;;;;;;4960622;28;20031;-72
2023/05/23 02:44:38;;;;;;;52.42;49.60;;;;;;;;;;4959807;28;20342;-72
2023/05/23 02:47:03;;;;;;;50.63;47.80;;;;;;;;;;4964248;28;20484;-62
2023/05/23 02:49:29;;;;;;;50.13;47.35;;;;;;;;;;4959623;28;20178;-62
2023/05/23 02:51:54;;;;;;;45.47;43.03;;;;;;;;;;4961903;28;20046;-72
2023/05/23 02:54:19;;;;;;;41.58;39.10;;;;;;;;;;4962506;28;20043;-72
2023/05/23 02:56:45;;;;;;;40.22;37.90;;;;;;;;;;4958532;28;20049;-63
2023/05/23 02:59:11;;;;;;;37.10;35.05;;;;;;;;;;4961200;28;20082;-73
2023/05/23 03:01:36;;;;;;;40.63;38.28;;;;;;;;;;4962733;28;20050;-72
2023/05/23 03:04:02;;;;;;;35.45;33.53;;;;;;;;;;4962583;28;20113;-62
2023/05/23 03:06:27;;;;;;;38.70;36.50;;;;;;;;;;4960659;28;20031;-62
2023/05/23 03:08:53;;;;;;;38.40;36.25;;;;;;;;;;4961211;28;20038;-73
2023/05/23 03:11:18;;;;;;;39.78;37.42;;;;;;;;;;4960552;28;20034;-72
2023/05/23 03:13:43;;;;;;;38.63;36.50;;;;;;;;;;4960753;28;20368;-73
2023/05/23 03:16:10;;;;;;;34.40;32.47;;;;;;;;;;4961805;28;20042;-71
2023/05/23 03:18:35;;;;;;;36.38;34.30;;;;;;;;;;4963818;28;20073;-71
2023/05/23 03:21:01;;;;;;;29.67;27.98;;;;;;;;;;4960508;28;20096;-71
2023/05/23 03:23:26;;;;;;;35.55;33.30;;;;;;;;;;4955606;28;20039;-73
2023/05/23 03:25:51;;;;;;;31.20;29.40;;;;;;;;;;4956552;28;20042;-72
2023/05/23 03:28:17;;;;;;;26.90;25.38;;;;;;;;;;4961712;28;20038;-74
2023/05/23 03:30:42;;;;;;;28.38;26.83;;;;;;;;;;4962319;28;20030;-72
2023/05/23 03:33:08;;;;;;;25.60;24.20;;;;;;;;;;4958543;28;20047;-63
2023/05/23 03:35:33;;;;;;;27.90;26.35;;;;;;;;;;4961975;28;20065;-62
2023/05/23 03:37:58;;;;;;;30.05;28.42;;;;;;;;;;4960574;28;20062;-70
2023/05/23 03:40:24;;;;;;;24.75;23.42;;;;;;;;;;4960186;28;20034;-72
2023/05/23 03:43:01;;;;;;;23.75;22.35;;;;;;;;;;4963550;28;20453;-72
2023/05/23 03:45:26;;;;;;;21.27;19.98;;;;;;;;;;4963535;28;20047;-70
2023/05/23 03:47:52;;;;;;;22.02;20.27;;;;;;;;;;4959760;28;20035;-70
2023/05/23 03:50:17;;;;;;;21.38;20.08;;;;;;;;;;4957323;28;20066;-71
2023/05/23 03:52:42;;;;;;;21.60;20.38;;;;;;;;;;4960509;28;20110;-61
2023/05/23 03:55:10;;;;;;;21.52;20.02;;;;;;;;;;4962838;28;20031;-70
2023/05/23 03:57:35;;;;;;;21.38;20.08;;;;;;;;;;4959057;28;20042;-69
2023/05/23 04:00:04;;;;;;;19.77;18.60;;;;;;;;;;4958869;28;20035;-61
2023/05/23 04:02:30;;;;;;;19.92;18.73;;;;;;;;;;4959715;28;20077;-61
2023/05/23 04:04:55;;;;;;;18.98;17.83;;;;;;;;;;4958965;28;20062;-69
2023/05/23 04:07:21;;;;;;;18.40;17.20;;;;;;;;;;4959254;28;20043;-69
2023/05/23 04:09:47;;;;;;;19.08;17.80;;;;;;;;;;4958512;28;20146;-60
2023/05/23 04:12:12;;;;;;;17.73;16.55;;;;;;;;;;4959515;28;20456;-60
2023/05/23 04:14:38;;;;;;;15.68;14.73;;;;;;;;;;4963325;28;20049;-60
2023/05/23 04:17:04;;;;;;;17.55;16.35;;;;;;;;;;4962945;28;20346;-61
2023/05/23 04:19:30;;;;;;;17.95;16.63;;;;;;;;;;4959235;28;20050;-70
2023/05/23 04:21:55;;;;;;;18.13;16.70;;;;;;;;;;4961354;28;20050;-61
2023/05/23 04:24:20;;;;;;;17.17;16.13;;;;;;;;;;4959847;28;20102;-70
2023/05/23 04:26:46;;;;;;;19.55;18.23;;;;;;;;;;4958375;28;20046;-69
2023/05/23 04:29:11;;;;;;;18.30;17.13;;;;;;;;;;4958243;28;20023;-70
2023/05/23 04:31:37;;;;;;;21.42;20.00;;;;;;;;;;4957644;28;20050;-69
2023/05/23 04:34:02;;;;;;;26.40;24.60;;;;;;;;;;4958553;28;20053;-69
2023/05/23 04:36:29;;;;;;;29.88;28.23;;;;;;;;;;4960343;28;20053;-70
2023/05/23 04:38:54;;;;;;;30.88;28.65;;;;;;;;;;4962560;28;20046;-71
2023/05/23 04:41:22;;;;;;;28.58;27.00;;;;;;;;;;4960623;28;20038;-70
2023/05/23 04:43:53;;;;;;;30.67;28.98;;;;;;;;;;4961494;28;20042;-61
2023/05/23 04:46:21;;;;;;;32.08;30.35;;;;;;;;;;4957058;28;20456;-69
2023/05/23 04:48:47;;;;;;;38.75;36.55;;;;;;;;;;4956629;28;20074;-61
2023/05/23 04:51:12;;;;;;;38.00;35.85;;;;;;;;;;4957810;28;20043;-68
2023/05/23 04:53:39;;;;;;;36.42;34.30;;;;;;;;;;4958041;28;20035;-69
2023/05/23 04:56:07;;;;;;;37.95;35.78;;;;;;;;;;4957605;28;20035;-69
2023/05/23 04:58:32;;;;;;;36.00;34.00;;;;;;;;;;4959011;28;20090;-70
2023/05/23 05:00:58;;;;;;;37.45;35.10;;;;;;;;;;4956167;28;20426;-61
2023/05/23 05:03:25;;;;;;;38.00;35.75;;;;;;;;;;4961370;28;20382;-69
2023/05/23 05:05:50;;;;;;;39.03;36.70;;;;;;;;;;4960381;28;20461;-61
2023/05/23 05:08:18;;;;;;;34.67;32.67;;;;;;;;;;4958041;28;20042;-61
2023/05/23 05:10:44;;;;;;;35.72;33.78;;;;;;;;;;4957350;28;20125;-70
2023/05/23 05:13:09;;;;;;;36.95;34.85;;;;;;;;;;4959669;28;20110;-61
2023/05/23 05:15:35;;;;;;;34.03;32.10;;;;;;;;;;4960280;28;20031;-60
2023/05/23 05:18:00;;;;;;;34.00;32.13;;;;;;;;;;4962187;28;20062;-61
2023/05/23 05:20:26;;;;;;;34.85;32.83;;;;;;;;;;4961588;28;20042;-61
2023/05/23 05:22:57;;;;;;;32.95;31.08;;;;;;;;;;4954878;28;20030;-60
2023/05/23 05:25:23;;;;;;;28.85;27.30;;;;;;;;;;4959247;28;20106;-61
2023/05/23 05:27:49;;;;;;;35.97;34.10;;;;;;;;;;4959074;28;20457;-62
2023/05/23 05:30:15;;;;;;;35.17;33.13;;;;;;;;;;4959946;28;20058;-61
2023/05/23 05:32:40;;;;;;;41.15;38.83;;;;;;;;;;4958726;28;20744;-61
2023/05/23 05:35:07;;;;;;;44.08;41.67;;;;;;;;;;4960037;28;20040;-61
2023/05/23 05:37:32;;;;;;;51.63;48.92;;;;;;;;;;4957773;28;20058;-61
2023/05/23 05:39:58;;;;;;;55.65;52.55;;;;;;;;;;4960607;28;20030;-61
2023/05/23 05:42:23;;;;;;;55.95;53.05;;;;;;;;;;4958506;28;20038;-61
2023/05/23 05:44:48;;;;;;;61.42;58.20;;;;;;;;;;4963465;28;20133;-67
2023/05/23 05:47:14;;;;;;;68.93;65.38;;;;;;;;;;4956258;28;20120;-69
2023/05/23 05:49:40;;;;;;;69.60;66.05;;;;;;;;;;4958013;28;20035;-69
2023/05/23 05:52:07;;;;;;;56.88;53.15;;;;;;;;;;4957764;28;20035;-62
2023/05/23 05:54:32;;;;;;;57.13;54.17;;;;;;;;;;4957347;28;20046;-60
2023/05/23 05:56:57;;;;;;;57.80;54.83;;;;;;;;;;4961252;28;20042;-60
2023/05/23 05:59:23;;;;;;;66.85;63.47;;;;;;;;;;4956202;28;20129;-67
2023/05/23 06:01:50;;;;;;;72.60;68.95;;;;;;;;;;4960059;28;20043;-60
2023/05/23 06:04:16;;;;;;;62.72;59.53;;;;;;;;;;4959705;28;20126;-66
2023/05/23 06:06:41;;;;;;;66.20;62.53;;;;;;;;;;4958959;28;20046;-60
2023/05/23 06:09:07;;;;;;;88.32;83.90;;;;;;;;;;4960484;28;20031;-60
2023/05/23 06:11:32;;;;;;;60.95;57.83;;;;;;;;;;4955401;28;20102;-68
2023/05/23 06:13:57;;;;;;;40.95;38.55;;;;;;;;;;4960774;28;20054;-69
2023/05/23 06:16:23;;;;;;;36.28;34.30;;;;;;;;;;4957910;28;20035;-62
2023/05/23 06:18:48;;;;;;;47.42;44.92;;;;;;;;;;4960216;28;20118;-62
2023/05/23 06:21:13;;;;;;;66.28;62.90;;;;;;;;;;4960934;28;20069;-62
2023/05/23 06:23:39;;;;;;;67.60;64.05;;;;;;;;;;4956029;28;20134;-70
2023/05/23 06:26:09;;;;;;;47.95;45.45;;;;;;;;;;4958378;28;20042;-70
2023/05/23 06:28:35;;;;;;;63.15;59.90;;;;;;;;;;4955225;28;20035;-63
2023/05/23 06:31:00;;;;;;;51.08;48.45;;;;;;;;;;4956012;28;20045;-71
2023/05/23 06:33:25;;;;;;;28.60;27.10;;;;;;;;;;4944733;28;20039;-70
2023/05/23 06:35:51;;;;;;;38.35;36.38;;;;;;;;;;4956155;28;20493;-70
2023/05/23 06:38:16;;;;;;;40.20;38.10;;;;;;;;;;4958289;28;20497;-63
2023/05/23 06:40:41;;;;;;;50.33;47.63;;;;;;;;;;4956951;28;20377;-63
2023/05/23 06:43:07;;;;;;;49.22;46.72;;;;;;;;;;4957347;28;20451;-62
2023/05/23 06:45:33;;;;;;;29.25;27.67;;;;;;;;;;4958317;28;20125;-63
2023/05/23 06:48:00;;;;;;;50.13;47.58;;;;;;;;;;4957835;28;20039;-62
2023/05/23 06:50:25;;;;;;;33.67;31.90;;;;;;;;;;4957422;28;20861;-62
2023/05/23 06:52:50;;;;;;;49.35;46.83;;;;;;;;;;4962340;28;20053;-62
2023/05/23 06:55:18;;;;;;;48.55;45.85;;;;;;;;;;4957040;28;20501;-62
2023/05/23 06:57:43;;;;;;;36.95;35.00;;;;;;;;;;4958483;28;20125;-63
2023/05/23 07:00:12;;;;;;;35.13;33.28;;;;;;;;;;4962241;28;20141;-62
2023/05/23 07:02:37;;;;;;;25.55;24.05;;;;;;;;;;4957452;28;20759;-62
2023/05/23 07:05:03;;;;;;;36.92;35.00;;;;;;;;;;4957645;28;20054;-63
2023/05/23 07:07:29;;;;;;;44.58;42.28;;;;;;;;;;4955841;28;20090;-62
2023/05/23 07:09:54;;;;;;;52.10;49.33;;;;;;;;;;4960107;28;20432;-62
2023/05/23 07:12:19;;;;;;;46.33;43.95;;;;;;;;;;4956359;28;20031;-69
2023/05/23 07:14:45;;;;;;;46.85;44.35;;;;;;;;;;4960236;28;20132;-62
2023/05/23 07:17:10;;;;;;;30.85;28.90;;;;;;;;;;4953755;28;20129;-62
2023/05/23 07:19:36;;;;;;;29.98;28.40;;;;;;;;;;4956681;28;20061;-62
2023/05/23 07:22:02;;;;;;;22.98;21.67;;;;;;;;;;4956636;28;20039;-62
2023/05/23 07:24:27;;;;;;;27.38;25.77;;;;;;;;;;4959388;28;20041;-62
2023/05/23 07:26:52;;;;;;;20.92;19.73;;;;;;;;;;4962426;28;20054;-62
2023/05/23 07:29:18;;;;;;;22.95;21.65;;;;;;;;;;4963013;28;20039;-62
2023/05/23 07:31:43;;;;;;;25.02;23.63;;;;;;;;;;4961484;28;20034;-62
2023/05/23 07:34:08;;;;;;;24.33;23.02;;;;;;;;;;4960839;28;20039;-62
2023/05/23 07:36:36;;;;;;;25.95;24.52;;;;;;;;;;4965160;28;20030;-62
2023/05/23 07:39:02;;;;;;;21.65;20.45;;;;;;;;;;4964213;28;20034;-62
2023/05/23 07:41:27;;;;;;;16.77;15.77;;;;;;;;;;4962207;28;20034;-61
2023/05/23 07:43:53;;;;;;;21.58;20.38;;;;;;;;;;4963985;28;20109;-61
2023/05/23 07:46:18;;;;;;;17.50;16.50;;;;;;;;;;4956463;28;20360;-62
2023/05/23 07:48:44;;;;;;;17.55;16.52;;;;;;;;;;4955988;28;20039;-61
2023/05/23 07:51:09;;;;;;;20.60;19.30;;;;;;;;;;4961961;28;20035;-62
2023/05/23 07:53:38;;;;;;;18.65;17.55;;;;;;;;;;4959145;28;20046;-61
2023/05/23 07:56:04;;;;;;;19.92;18.83;;;;;;;;;;4960509;28;20085;-62
2023/05/23 07:58:30;;;;;;;19.95;18.85;;;;;;;;;;4956858;28;20114;-62
2023/05/23 08:00:56;;;;;;;19.00;17.90;;;;;;;;;;4960764;28;20122;-62
2023/05/23 08:03:22;;;;;;;19.25;18.15;;;;;;;;;;4961597;28;20030;-62
2023/05/23 08:05:47;;;;;;;20.60;19.40;;;;;;;;;;4961881;28;20108;-67
2023/05/23 08:08:13;;;;;;;19.08;17.85;;;;;;;;;;4961956;28;20058;-61
2023/05/23 08:10:38;;;;;;;20.20;19.10;;;;;;;;;;4960002;28;20035;-61
2023/05/23 08:13:05;;;;;;;22.23;21.02;;;;;;;;;;4963909;28;20034;-62
2023/05/23 08:15:32;;;;;;;21.45;20.25;;;;;;;;;;4963067;28;20035;-62
2023/05/23 08:17:59;;;;;;;19.92;18.80;;;;;;;;;;4962194;28;20058;-62
2023/05/23 08:20:29;;;;;;;19.08;18.00;;;;;;;;;;4961086;28;20049;-61
2023/05/23 08:22:57;;;;;;;18.42;17.42;;;;;;;;;;4957763;28;20050;-61
2023/05/23 08:25:23;;;;;;;22.08;20.88;;;;;;;;;;4965017;28;20053;-62
2023/05/23 08:27:49;;;;;;;20.80;19.65;;;;;;;;;;4958856;28;20466;-62
2023/05/23 08:30:15;;;;;;;20.73;19.60;;;;;;;;;;4957849;28;20053;-62
2023/05/23 08:32:40;;;;;;;20.35;19.23;;;;;;;;;;4959277;28;20035;-62
2023/05/23 08:35:06;;;;;;;21.00;19.83;;;;;;;;;;4954682;28;20121;-67
2023/05/23 08:37:31;;;;;;;20.55;19.45;;;;;;;;;;4962068;28;20046;-67
2023/05/23 08:39:57;;;;;;;19.42;18.33;;;;;;;;;;4963309;28;20101;-66
2023/05/23 08:42:22;;;;;;;19.02;18.02;;;;;;;;;;4962090;28;20034;-62
2023/05/23 08:44:47;;;;;;;18.88;17.67;;;;;;;;;;4960694;28;20059;-61
2023/05/23 08:47:16;;;;;;;15.90;15.00;;;;;;;;;;4958360;28;20098;-62
2023/05/23 08:49:43;;;;;;;19.02;17.92;;;;;;;;;;4959305;28;20156;-61
2023/05/23 08:52:11;;;;;;;13.68;12.88;;;;;;;;;;4961527;28;20401;-67
2023/05/23 08:54:37;;;;;;;13.85;13.05;;;;;;;;;;4963431;28;20043;-66
2023/05/23 08:57:02;;;;;;;15.68;14.77;;;;;;;;;;4956883;28;20073;-66
2023/05/23 08:59:29;;;;;;;16.55;15.65;;;;;;;;;;4957449;28;20042;-65
2023/05/23 09:01:55;;;;;;;16.77;15.77;;;;;;;;;;4961379;28;20583;-61
2023/05/23 09:04:21;;;;;;;18.17;17.08;;;;;;;;;;4958234;28;20221;-61
2023/05/23 09:06:46;;;;;;;15.45;14.55;;;;;;;;;;4961736;28;20114;-61
2023/05/23 09:09:12;;;;;;;15.60;14.70;;;;;;;;;;4964089;28;20484;-61
2023/05/23 09:11:38;;;;;;;12.23;11.52;;;;;;;;;;4960911;28;20559;-60
2023/05/23 09:14:06;;;;;;;14.38;13.57;;;;;;;;;;4960573;28;20038;-61
2023/05/23 09:16:33;;;;;;;13.10;12.30;;;;;;;;;;4957800;28;20039;-61
2023/05/23 09:19:09;;;;;;;16.23;15.27;;;;;;;;;;4960467;28;20035;-61
2023/05/23 09:21:34;;;;;;;17.55;16.55;;;;;;;;;;4960709;28;20041;-62
2023/05/23 09:24:00;;;;;;;25.02;23.67;;;;;;;;;;4959602;28;20039;-61
2023/05/23 09:26:26;;;;;;;19.17;18.15;;;;;;;;;;4961357;28;20038;-62
2023/05/23 09:28:57;;;;;;;18.50;17.48;;;;;;;;;;4976457;28;20031;-66
2023/05/23 09:31:25;;;;;;;18.27;17.17;;;;;;;;;;4958228;28;20071;-66
2023/05/23 09:33:51;;;;;;;16.73;15.73;;;;;;;;;;4974279;28;20034;-62
2023/05/23 09:36:17;;;;;;;15.63;14.73;;;;;;;;;;4961614;28;20136;-62
2023/05/23 09:38:45;;;;;;;15.35;14.45;;;;;;;;;;4961156;28;20034;-66
2023/05/23 09:41:11;;;;;;;18.05;17.05;;;;;;;;;;4960243;28;20038;-62
2023/05/23 09:43:49;;;;;;;16.25;15.35;;;;;;;;;;4959400;28;20683;-62
2023/05/23 09:46:14;;;;;;;15.23;14.32;;;;;;;;;;4958581;28;20031;-61
2023/05/23 09:48:45;;;;;;;16.63;15.70;;;;;;;;;;4957548;28;20461;-62
2023/05/23 09:51:10;;;;;;;;;;;;;;;;;;4960250;28;20042;-62
2023/05/23 09:53:36;;;;;;;14.63;13.73;;;;;;;;;;4956313;28;19929;-62
2023/05/23 09:56:02;;;;;;;17.33;16.33;;;;;;;;;;4960285;28;20133;-62
2023/05/23 09:58:31;;;;;;;14.70;13.90;;;;;;;;;;4957865;28;20042;-63
2023/05/23 10:01:02;;;;;;;13.40;12.60;;;;;;;;;;4958675;28;20248;-62
2023/05/23 10:03:34;;;;;;;;;;;;;;;;;;4957679;28;20039;-62
2023/05/23 10:06:06;;;;;;;15.63;14.73;;;;;;;;;;4959226;28;20520;-63
2023/05/23 10:08:49;;;;;;;14.40;13.57;;;;;;;;;;4954404;28;20381;-63
2023/05/23 10:11:15;;;;;;;12.27;11.55;;;;;;;;;;4957107;28;20504;-62
2023/05/23 10:13:45;;;;;;;11.93;11.18;;;;;;;;;;4957408;28;20034;-62
2023/05/23 10:16:15;;;;;;;;;;;;;;;;;;4959616;28;20444;-62
2023/05/23 10:18:51;;;;;;;12.50;11.75;;;;;;;;;;4958353;28;19964;-62
2023/05/23 10:21:21;;;;;;;15.05;14.18;;;;;;;;;;4957538;28;20519;-62
2023/05/23 10:23:47;;;;;;;22.48;21.27;;;;;;;;;;4958205;28;20134;-62
2023/05/23 10:26:12;;;;;;;20.13;19.02;;;;;;;;;;4959688;28;20043;-66
2023/05/23 10:28:40;;;;;;;19.73;18.63;;;;;;;;;;4959488;28;20097;-67
2023/05/23 10:31:06;;;;;;;16.30;15.40;;;;;;;;;;4960966;28;20098;-62
2023/05/23 10:33:37;;;;;;;15.90;15.00;;;;;;;;;;4955812;28;20097;-62
2023/05/23 10:36:08;;;;;;;19.35;18.27;;;;;;;;;;4961364;28;20035;-66
2023/05/23 10:39:01;;;;;;;14.55;13.65;;;;;;;;;;4956905;28;20078;-61
2023/05/23 10:41:32;;;;;;;24.90;23.50;;;;;;;;;;4958104;28;20042;-62
2023/05/23 10:44:15;;;;;;;26.27;24.88;;;;;;;;;;4955009;28;20034;-63
2023/05/23 10:47:01;;;;;;;19.00;17.95;;;;;;;;;;4958079;28;20053;-62
2023/05/23 10:49:40;;;;;;;22.27;21.05;;;;;;;;;;4961406;28;20034;-61
2023/05/23 10:52:07;;;;;;;19.30;17.48;;;;;;;;;;4960815;28;20030;-67
2023/05/23 10:54:55;;;;;;;16.05;15.13;;;;;;;;;;4955145;28;20556;-64
2023/05/23 10:57:25;;;;;;;14.20;13.40;;;;;;;;;;4959117;28;20205;-65
2023/05/23 10:59:51;;;;;;;15.18;14.27;;;;;;;;;;4960558;28;20121;-67
2023/05/23 11:02:27;;;;;;;16.77;15.77;;;;;;;;;;4963450;28;20449;-66
2023/05/23 11:05:32;;;;;;;15.38;14.48;;;;;;;;;;4962525;28;20126;-66
2023/05/23 11:08:12;;;;;;;14.73;13.88;;;;;;;;;;4924508;29;20532;-67
2023/05/23 11:10:59;;;;;;;17.45;16.23;;;;;;;;;;4923747;29;20047;-66
2023/05/23 11:13:25;;;;;;;38.90;36.85;;;;;;;;;;4946763;28;20051;-67
2023/05/23 11:15:50;;;;;;;39.33;37.25;;;;;;;;;;4959526;28;20039;-66
2023/05/23 11:18:25;;;;;;;43.65;41.42;;;;;;;;;;4959481;28;20328;-66
2023/05/23 11:20:54;;;;;;;49.53;47.03;;;;;;;;;;4959474;28;20101;-67
2023/05/23 11:23:20;;;;;;;53.17;50.47;;;;;;;;;;4965900;28;20062;-67
2023/05/23 11:25:50;;;;;;;43.95;41.70;;;;;;;;;;4960083;28;20047;-67
2023/05/23 11:28:17;;;;;;;47.42;45.00;;;;;;;;;;4963934;28;20035;-68
2023/05/23 11:30:43;;;;;;;48.25;45.47;;;;;;;;;;4967104;28;20049;-67
2023/05/23 11:33:12;;;;;;;52.15;49.35;;;;;;;;;;4963837;28;20049;-68
2023/05/23 11:35:48;;;;;;;46.53;44.17;;;;;;;;;;4959871;28;20035;-68
2023/05/23 11:38:15;;;;;;;49.53;47.03;;;;;;;;;;4961963;28;20061;-63
2023/05/23 11:40:43;;;;;;;52.38;49.70;;;;;;;;;;4962614;28;20413;-67
2023/05/23 11:43:10;;;;;;;53.72;51.03;;;;;;;;;;4962076;28;20055;-67
2023/05/23 11:45:37;;;;;;;47.80;45.25;;;;;;;;;;4963429;28;20077;-64
2023/05/23 11:48:10;;;;;;;50.78;48.17;;;;;;;;;;4962280;28;20070;-68
2023/05/23 11:50:52;;;;;;;47.58;45.17;;;;;;;;;;4962517;28;20038;-64
2023/05/23 11:53:20;;;;;;;50.92;48.33;;;;;;;;;;4961060;28;20027;-64
2023/05/23 11:55:57;;;;;;;37.42;35.47;;;;;;;;;;4959988;28;20049;-64
2023/05/23 11:58:28;;;;;;;46.42;44.08;;;;;;;;;;4958905;28;20927;-67
2023/05/23 12:01:02;;;;;;;27.50;25.70;;;;;;;;;;4964197;28;20133;-67
2023/05/23 12:03:27;;;;;;;48.20;45.75;;;;;;;;;;4961152;28;20209;-68
2023/05/23 12:05:57;;;;;;;27.92;26.45;;;;;;;;;;4963536;28;20039;-67
2023/05/23 12:08:23;;;;;;;47.70;45.30;;;;;;;;;;4956888;28;20071;-68
2023/05/23 12:10:51;;;;;;;53.80;51.10;;;;;;;;;;4959929;28;20741;-67
2023/05/23 12:13:17;;;;;;;48.20;45.80;;;;;;;;;;4962173;28;20385;-68
2023/05/23 12:15:43;;;;;;;47.20;44.80;;;;;;;;;;4958659;28;20038;-68
2023/05/23 12:18:08;;;;;;;51.78;49.17;;;;;;;;;;4959828;28;20027;-67
2023/05/23 12:20:35;;;;;;;47.92;45.53;;;;;;;;;;4959274;28;20038;-68
2023/05/23 12:23:03;;;;;;;38.08;36.08;;;;;;;;;;4955960;28;20054;-68
2023/05/23 12:25:36;;;;;;;37.78;35.78;;;;;;;;;;4958970;28;20043;-63
2023/05/23 12:28:02;;;;;;;58.10;55.20;;;;;;;;;;4957318;28;20039;-68
2023/05/23 12:30:27;;;;;;;52.75;50.10;;;;;;;;;;4959275;28;20050;-68
2023/05/23 12:32:53;;;;;;;66.35;63.05;;;;;;;;;;4964182;28;20038;-64
2023/05/23 12:35:18;;;;;;;52.50;49.85;;;;;;;;;;4966786;28;20035;-63
2023/05/23 12:37:44;;;;;;;85.07;80.88;;;;;;;;;;4961162;28;20074;-63
2023/05/23 12:40:17;;;;;;;67.75;64.32;;;;;;;;;;4959311;28;20141;-67
2023/05/23 12:42:51;;;;;;;66.30;63.00;;;;;;;;;;4956057;28;20035;-63
2023/05/23 12:45:17;;;;;;;59.33;56.35;;;;;;;;;;4959714;28;20657;-64
2023/05/23 12:47:43;;;;;;;37.58;35.65;;;;;;;;;;4959287;28;20047;-64
2023/05/23 12:50:10;;;;;;;54.65;51.92;;;;;;;;;;4957624;28;20038;-64
2023/05/23 12:52:36;;;;;;;28.48;26.98;;;;;;;;;;4959266;28;20057;-64
2023/05/23 12:55:02;;;;;;;32.70;31.00;;;;;;;;;;4957575;28;20039;-64
2023/05/23 12:57:27;;;;;;;36.20;34.10;;;;;;;;;;4957561;28;20482;-64
2023/05/23 12:59:53;;;;;;;49.15;46.65;;;;;;;;;;4964519;28;20043;-68
2023/05/23 13:02:18;;;;;;;44.47;42.17;;;;;;;;;;4964240;28;20039;-63
2023/05/23 13:04:43;;;;;;;50.20;47.63;;;;;;;;;;4955906;28;20049;-63
2023/05/23 13:07:09;;;;;;;57.58;54.30;;;;;;;;;;4956348;28;20626;-64
2023/05/23 13:09:34;;;;;;;46.90;44.53;;;;;;;;;;4961668;28;20043;-64
2023/05/23 13:11:59;;;;;;;46.20;43.88;;;;;;;;;;4961030;28;20117;-63
2023/05/23 13:14:25;;;;;;;47.53;45.08;;;;;;;;;;4961024;28;20487;-68
2023/05/23 13:16:51;;;;;;;40.20;38.15;;;;;;;;;;4957263;28;20027;-62
2023/05/23 13:19:16;;;;;;;54.05;51.33;;;;;;;;;;4960008;28;20045;-69
2023/05/23 13:21:42;;;;;;;47.75;45.35;;;;;;;;;;4958503;28;20061;-69
2023/05/23 13:24:07;;;;;;;44.60;42.33;;;;;;;;;;4960772;28;20066;-70
2023/05/23 13:26:33;;;;;;;51.88;49.25;;;;;;;;;;4957138;28;20046;-67
2023/05/23 13:28:59;;;;;;;51.55;48.92;;;;;;;;;;4954929;28;20035;-64
2023/05/23 13:31:24;;;;;;;44.22;41.92;;;;;;;;;;4958566;28;20086;-64
2023/05/23 13:33:50;;;;;;;43.97;41.75;;;;;;;;;;4960926;28;20041;-63
2023/05/23 13:36:15;;;;;;;43.22;41.03;;;;;;;;;;4958548;28;20065;-69
2023/05/23 13:38:41;;;;;;;40.10;38.00;;;;;;;;;;4960544;28;20027;-64
2023/05/23 13:41:06;;;;;;;43.30;41.10;;;;;;;;;;4955735;28;20709;-63
2023/05/23 13:43:32;;;;;;;49.80;47.30;;;;;;;;;;4957231;28;20034;-69
2023/05/23 13:45:57;;;;;;;42.80;40.60;;;;;;;;;;4957844;28;20418;-68
2023/05/23 13:48:22;;;;;;;38.42;36.42;;;;;;;;;;4959415;28;20042;-64
2023/05/23 13:50:48;;;;;;;41.03;38.92;;;;;;;;;;4960419;28;20038;-62
2023/05/23 13:53:15;;;;;;;52.80;50.13;;;;;;;;;;4957923;28;20089;-62
2023/05/23 13:55:41;;;;;;;39.05;37.05;;;;;;;;;;4958630;28;20023;-62
2023/05/23 13:58:07;;;;;;;48.85;46.40;;;;;;;;;;4963686;28;20532;-62
2023/05/23 14:00:32;;;;;;;41.10;38.90;;;;;;;;;;4959746;28;20046;-62
2023/05/23 14:02:58;;;;;;;41.22;38.88;;;;;;;;;;4957561;28;20039;-67
2023/05/23 14:05:23;;;;;;;46.53;44.15;;;;;;;;;;4953965;28;20039;-64
2023/05/23 14:07:48;;;;;;;43.72;41.53;;;;;;;;;;4957206;28;20035;-61
2023/05/23 14:10:16;;;;;;;38.53;36.53;;;;;;;;;;4960846;28;20854;-61
2023/05/23 14:12:41;;;;;;;41.47;39.35;;;;;;;;;;4959299;28;20038;-60
2023/05/23 14:15:07;;;;;;;36.90;35.00;;;;;;;;;;4959131;28;20035;-66
2023/05/23 14:17:32;;;;;;;40.05;37.90;;;;;;;;;;4955500;28;20067;-64
2023/05/23 14:19:58;;;;;;;39.35;37.33;;;;;;;;;;4959640;28;20043;-67